Webcam Flughafen St.Gallen-Altenrhein

Live-Bilder und Zeitraffer LSZR / ACH.

 

Live aus Altenrhein
LIVE
LSZR 070950Z AUTO 28006KT CAVOK 12/05 Q1029
Zeitraffer heute
2020-04-07 00:13:53
LSZR 062150Z AUTO VRB01KT CAVOK 08/02 Q1026